createdAt,value
2022-09-11T00:01:17.378Z,12.90
2022-09-11T00:03:46.215Z,12.80
2022-09-11T00:06:27.540Z,12.90
2022-09-11T00:09:02.151Z,12.80
2022-09-11T00:11:34.611Z,12.80
2022-09-11T00:14:02.211Z,12.80
2022-09-11T00:16:33.934Z,12.80
2022-09-11T00:19:06.223Z,12.80
2022-09-11T00:21:33.915Z,12.80
2022-09-11T00:24:01.244Z,12.80
2022-09-11T00:26:28.682Z,12.80
2022-09-11T00:28:56.139Z,12.80
2022-09-11T00:31:28.646Z,12.80
2022-09-11T00:33:56.146Z,12.80
2022-09-11T00:36:29.293Z,12.80
2022-09-11T00:38:56.505Z,12.80
2022-09-11T00:41:32.090Z,12.80
2022-09-11T00:44:28.350Z,12.70
2022-09-11T00:46:59.250Z,12.70
2022-09-11T00:49:46.482Z,12.70
2022-09-11T00:52:27.263Z,12.70
2022-09-11T00:55:00.438Z,12.60
2022-09-11T00:57:30.539Z,12.60
2022-09-11T01:00:00.393Z,12.60
2022-09-11T01:02:29.507Z,12.60
2022-09-11T01:04:57.835Z,12.60
2022-09-11T01:07:26.915Z,12.60
2022-09-11T01:09:55.090Z,12.60
2022-09-11T01:12:36.519Z,12.60
2022-09-11T01:15:06.758Z,12.60
2022-09-11T01:17:48.146Z,12.60
2022-09-11T01:20:43.032Z,12.60
2022-09-11T01:23:26.070Z,12.60
2022-09-11T01:26:11.998Z,12.60
2022-09-11T01:28:49.799Z,12.60
2022-09-11T01:31:22.682Z,12.60
2022-09-11T01:34:00.765Z,12.60
2022-09-11T01:36:35.359Z,12.60
2022-09-11T01:39:04.296Z,12.60
2022-09-11T01:41:53.255Z,12.50
2022-09-11T01:44:23.104Z,12.50
2022-09-11T01:46:52.405Z,12.50
2022-09-11T01:49:32.032Z,12.60
2022-09-11T01:52:09.221Z,12.60
2022-09-11T01:54:42.862Z,12.60
2022-09-11T01:57:36.654Z,12.60
2022-09-11T02:00:09.016Z,12.60
2022-09-11T02:02:39.907Z,12.60
2022-09-11T02:05:13.438Z,12.60
2022-09-11T02:07:55.847Z,12.50
2022-09-11T02:10:39.822Z,12.50
2022-09-11T02:13:35.840Z,12.50
2022-09-11T02:16:14.653Z,12.50
2022-09-11T02:18:51.487Z,12.50
2022-09-11T02:21:18.437Z,12.50
2022-09-11T02:23:45.572Z,12.50
2022-09-11T02:26:14.019Z,12.50
2022-09-11T02:28:41.096Z,12.50
2022-09-11T02:31:08.652Z,12.50
2022-09-11T02:33:38.005Z,12.50
2022-09-11T02:36:32.006Z,12.50
2022-09-11T02:39:20.082Z,12.50
2022-09-11T02:42:12.464Z,12.50
2022-09-11T02:44:58.639Z,12.50
2022-09-11T02:47:44.280Z,12.50
2022-09-11T02:50:26.735Z,12.50
2022-09-11T02:53:18.654Z,12.50
2022-09-11T02:56:12.066Z,12.60
2022-09-11T02:58:55.546Z,12.60
2022-09-11T03:01:23.462Z,12.60
2022-09-11T03:03:50.390Z,12.60
2022-09-11T03:06:23.216Z,12.60
2022-09-11T03:08:50.346Z,12.60
2022-09-11T03:11:18.865Z,12.60
2022-09-11T03:13:45.943Z,12.60
2022-09-11T03:16:13.532Z,12.60
2022-09-11T03:18:40.492Z,12.60
2022-09-11T03:21:07.429Z,12.60
2022-09-11T03:23:34.534Z,12.60
2022-09-11T03:26:01.416Z,12.60
2022-09-11T03:28:31.053Z,12.60
2022-09-11T03:30:59.251Z,12.60
2022-09-11T03:33:26.180Z,12.60
2022-09-11T03:35:53.104Z,12.60
2022-09-11T03:38:20.586Z,12.70
2022-09-11T03:40:47.450Z,12.70
2022-09-11T03:43:16.610Z,12.70
2022-09-11T03:45:44.926Z,12.70
2022-09-11T03:48:11.939Z,12.70
2022-09-11T03:50:38.817Z,12.70
2022-09-11T03:53:05.876Z,12.60
2022-09-11T03:55:33.025Z,12.70
2022-09-11T03:58:00.115Z,12.70
2022-09-11T04:00:27.350Z,12.70
2022-09-11T04:02:55.652Z,12.70
2022-09-11T04:05:25.853Z,12.70
2022-09-11T04:07:53.957Z,12.70
2022-09-11T04:10:21.337Z,12.70
2022-09-11T04:12:48.347Z,12.70
2022-09-11T04:15:15.558Z,12.70
2022-09-11T04:17:42.412Z,12.70
2022-09-11T04:20:10.100Z,12.70
2022-09-11T04:22:37.400Z,12.80
2022-09-11T04:25:04.611Z,12.80
2022-09-11T04:27:31.509Z,12.70
2022-09-11T04:29:58.584Z,12.80
2022-09-11T04:32:25.478Z,12.80
2022-09-11T04:34:53.042Z,12.70
2022-09-11T04:37:20.308Z,12.80
2022-09-11T04:39:47.779Z,12.80
2022-09-11T04:42:14.923Z,12.70
2022-09-11T04:44:42.732Z,12.80
2022-09-11T04:47:09.726Z,12.80
2022-09-11T04:49:36.614Z,12.80
2022-09-11T04:52:07.340Z,12.80
2022-09-11T04:54:34.318Z,12.80
2022-09-11T04:57:04.332Z,12.80
2022-09-11T04:59:31.469Z,12.80
2022-09-11T05:01:58.480Z,12.90
2022-09-11T05:04:26.508Z,12.90
2022-09-11T05:06:53.816Z,12.90
2022-09-11T05:09:20.872Z,12.90
2022-09-11T05:11:48.179Z,12.90
2022-09-11T05:14:15.515Z,12.90
2022-09-11T05:16:43.783Z,12.90
2022-09-11T05:19:10.751Z,12.80
2022-09-11T05:21:37.973Z,12.90
2022-09-11T05:24:05.275Z,12.90
2022-09-11T05:26:35.392Z,12.90
2022-09-11T05:29:07.206Z,13.00
2022-09-11T05:31:34.278Z,13.00
2022-09-11T05:34:03.277Z,13.00
2022-09-11T05:36:34.259Z,13.10
2022-09-11T05:39:01.793Z,13.20
2022-09-11T05:41:28.781Z,13.20
2022-09-11T05:44:00.188Z,13.30
2022-09-11T05:46:27.429Z,13.30
2022-09-11T05:48:54.719Z,13.40
2022-09-11T05:51:22.241Z,13.40
2022-09-11T05:53:53.601Z,13.40
2022-09-11T05:56:23.188Z,13.40
2022-09-11T05:58:51.807Z,13.50
2022-09-11T06:01:22.163Z,13.60
2022-09-11T06:03:49.658Z,13.60
2022-09-11T06:06:19.500Z,13.60
2022-09-11T06:08:47.438Z,13.60
2022-09-11T06:11:16.599Z,13.60
2022-09-11T06:13:48.765Z,13.60
2022-09-11T06:16:18.875Z,13.70
2022-09-11T06:18:49.293Z,13.70
2022-09-11T06:21:21.278Z,13.70
2022-09-11T06:23:49.847Z,13.60
2022-09-11T06:26:23.026Z,13.70
2022-09-11T06:28:51.318Z,13.80
2022-09-11T06:31:20.345Z,13.80
2022-09-11T06:33:47.920Z,13.90
2022-09-11T06:36:17.894Z,13.90
2022-09-11T06:38:45.362Z,14.00
2022-09-11T06:41:15.506Z,14.00
2022-09-11T06:43:43.717Z,14.00
2022-09-11T06:46:13.769Z,14.00
2022-09-11T06:48:42.115Z,14.00
2022-09-11T06:51:12.450Z,14.00
2022-09-11T06:53:41.119Z,14.10
2022-09-11T06:56:12.852Z,14.10
2022-09-11T06:58:41.180Z,14.10
2022-09-11T07:01:16.236Z,14.10
2022-09-11T07:03:46.331Z,14.10
2022-09-11T07:06:14.318Z,14.20
2022-09-11T07:08:41.555Z,14.20
2022-09-11T07:11:10.010Z,14.20
2022-09-11T07:13:38.618Z,14.10
2022-09-11T07:16:09.869Z,14.10
2022-09-11T07:18:39.497Z,14.10
2022-09-11T07:21:17.717Z,14.00
2022-09-11T07:23:48.574Z,14.10
2022-09-11T07:26:16.421Z,14.30
2022-09-11T07:28:43.329Z,14.60
2022-09-11T07:31:16.373Z,14.80
2022-09-11T07:33:48.833Z,14.80
2022-09-11T07:36:18.760Z,14.70
2022-09-11T07:38:47.290Z,14.70
2022-09-11T07:41:16.796Z,14.50
2022-09-11T07:43:46.886Z,14.30
2022-09-11T07:46:14.854Z,14.20
2022-09-11T07:48:43.068Z,14.00
2022-09-11T07:51:12.618Z,14.00
2022-09-11T07:53:47.903Z,14.10
2022-09-11T07:56:18.867Z,14.40
2022-09-11T07:58:46.463Z,14.40
2022-09-11T08:01:19.784Z,14.40
2022-09-11T08:03:49.452Z,14.30
2022-09-11T08:06:22.158Z,14.20
2022-09-11T08:08:58.369Z,14.10
2022-09-11T08:11:26.492Z,14.00
2022-09-11T08:13:55.154Z,14.00
2022-09-11T08:16:26.911Z,14.00
2022-09-11T08:18:54.862Z,13.90
2022-09-11T08:21:23.457Z,13.90
2022-09-11T08:23:50.992Z,13.90
2022-09-11T08:26:24.113Z,13.80
2022-09-11T08:28:54.017Z,13.80
2022-09-11T08:31:26.371Z,13.90
2022-09-11T08:33:54.601Z,14.10
2022-09-11T08:36:22.662Z,14.30
2022-09-11T08:38:51.572Z,14.50
2022-09-11T08:41:24.419Z,14.90
2022-09-11T08:44:10.635Z,15.20
2022-09-11T08:46:41.625Z,15.40
2022-09-11T08:49:30.960Z,15.70
2022-09-11T08:52:01.655Z,15.80
2022-09-11T08:54:35.007Z,15.60
2022-09-11T08:57:19.463Z,15.40
2022-09-11T08:59:46.540Z,15.40
2022-09-11T09:02:39.108Z,15.40
2022-09-11T09:05:44.267Z,15.70
2022-09-11T09:08:29.757Z,16.10
2022-09-11T09:11:00.300Z,16.40
2022-09-11T09:13:54.583Z,16.50
2022-09-11T09:16:39.398Z,16.30
2022-09-11T09:19:14.794Z,16.00
2022-09-11T09:21:59.309Z,15.80
2022-09-11T09:24:33.225Z,15.60
2022-09-11T09:27:03.597Z,15.20
2022-09-11T09:29:37.839Z,15.00
2022-09-11T09:32:11.848Z,14.80
2022-09-11T09:34:41.881Z,14.60
2022-09-11T09:37:21.743Z,14.70
2022-09-11T09:39:49.769Z,15.00
2022-09-11T09:42:26.244Z,15.40
2022-09-11T09:45:10.989Z,15.80
2022-09-11T09:47:44.558Z,16.40
2022-09-11T09:50:27.661Z,17.40
2022-09-11T09:52:59.394Z,18.30
2022-09-11T09:55:26.729Z,18.70
2022-09-11T09:57:54.086Z,19.10
2022-09-11T10:00:21.239Z,18.90
2022-09-11T10:02:57.284Z,18.50
2022-09-11T10:05:35.100Z,18.10
2022-09-11T10:08:06.809Z,18.10
2022-09-11T10:10:38.173Z,18.10
2022-09-11T10:13:22.424Z,18.10
2022-09-11T10:15:51.350Z,18.10
2022-09-11T10:18:33.972Z,18.10
2022-09-11T10:21:13.820Z,17.70
2022-09-11T10:24:22.463Z,17.50
2022-09-11T10:26:54.204Z,18.50
2022-09-11T10:29:24.427Z,17.70
2022-09-11T10:31:54.879Z,18.00
2022-09-11T10:34:25.280Z,17.70
2022-09-11T10:37:13.788Z,17.70
2022-09-11T10:39:43.891Z,17.60
2022-09-11T10:42:25.984Z,17.70
2022-09-11T10:44:54.730Z,17.60
2022-09-11T10:47:30.932Z,17.70
2022-09-11T10:50:17.748Z,18.10
2022-09-11T10:53:05.929Z,18.70
2022-09-11T10:55:39.051Z,19.20
2022-09-11T10:58:14.237Z,19.40
2022-09-11T11:00:41.099Z,19.60
2022-09-11T11:03:17.348Z,18.60
2022-09-11T11:05:53.153Z,18.70
2022-09-11T11:08:57.401Z,18.70
2022-09-11T11:11:40.308Z,18.70
2022-09-11T11:14:21.244Z,18.70
2022-09-11T11:17:18.698Z,18.40
2022-09-11T11:19:58.757Z,18.10
2022-09-11T11:22:51.576Z,18.10
2022-09-11T11:25:25.616Z,17.90
2022-09-11T11:28:07.726Z,17.90
2022-09-11T11:30:55.178Z,18.10
2022-09-11T11:33:34.238Z,18.10
2022-09-11T11:36:07.769Z,18.00
2022-09-11T11:39:00.502Z,17.90
2022-09-11T11:41:30.622Z,17.90
2022-09-11T11:44:02.594Z,17.90
2022-09-11T11:46:39.513Z,18.30
2022-09-11T11:49:23.067Z,18.60
2022-09-11T11:52:00.317Z,18.50
2022-09-11T11:54:37.593Z,18.40
2022-09-11T11:57:20.646Z,18.50
2022-09-11T11:59:54.670Z,18.80
2022-09-11T12:02:30.740Z,18.70
2022-09-11T12:05:05.061Z,18.50
2022-09-11T12:07:35.362Z,18.30
2022-09-11T12:10:05.037Z,18.30
2022-09-11T12:12:36.538Z,18.50
2022-09-11T12:15:09.834Z,18.90
2022-09-11T12:17:40.477Z,19.10
2022-09-11T12:20:10.765Z,19.30
2022-09-11T12:22:50.443Z,19.20
2022-09-11T12:25:23.250Z,18.80
2022-09-11T12:27:52.826Z,18.70
2022-09-11T12:30:25.013Z,18.50
2022-09-11T12:33:02.365Z,18.70
2022-09-11T12:35:50.896Z,18.60
2022-09-11T12:38:38.089Z,18.50
2022-09-11T12:41:14.114Z,18.40
2022-09-11T12:43:43.858Z,18.50
2022-09-11T12:46:34.696Z,18.60
2022-09-11T12:49:25.457Z,18.30
2022-09-11T12:52:00.381Z,17.80
2022-09-11T12:54:47.646Z,17.50
2022-09-11T12:57:19.325Z,17.30
2022-09-11T12:59:53.435Z,17.10
2022-09-11T13:02:30.005Z,16.90
2022-09-11T13:04:58.110Z,16.80
2022-09-11T13:07:43.080Z,16.80
2022-09-11T13:10:26.560Z,16.80
2022-09-11T13:12:55.880Z,16.80
2022-09-11T13:15:42.868Z,16.90
2022-09-11T13:18:31.021Z,17.10
2022-09-11T13:21:00.760Z,17.40
2022-09-11T13:23:29.342Z,17.60
2022-09-11T13:25:58.174Z,17.80
2022-09-11T13:28:27.761Z,17.80
2022-09-11T13:31:02.883Z,17.80
2022-09-11T13:33:32.090Z,17.70
2022-09-11T13:36:06.878Z,17.80
2022-09-11T13:38:36.596Z,18.00
2022-09-11T13:41:07.411Z,18.10
2022-09-11T13:43:46.980Z,18.10
2022-09-11T13:46:17.143Z,18.10
2022-09-11T13:48:46.007Z,18.00
2022-09-11T13:51:15.098Z,17.90
2022-09-11T13:53:45.359Z,17.80
2022-09-11T13:56:58.317Z,17.80
2022-09-11T13:59:35.319Z,17.80
2022-09-11T14:02:07.161Z,17.80
2022-09-11T14:04:40.707Z,18.00
2022-09-11T14:07:18.074Z,18.10
2022-09-11T14:10:06.372Z,18.30
2022-09-11T14:12:35.360Z,18.40
2022-09-11T14:15:21.012Z,18.60
2022-09-11T14:17:48.068Z,18.60
2022-09-11T14:20:20.179Z,18.60
2022-09-11T14:22:47.726Z,18.50
2022-09-11T14:25:24.266Z,18.40
2022-09-11T14:27:51.651Z,18.30
2022-09-11T14:30:37.209Z,18.30
2022-09-11T14:33:15.706Z,18.30
2022-09-11T14:35:45.791Z,18.20
2022-09-11T14:38:14.632Z,18.10
2022-09-11T14:41:03.064Z,17.90
2022-09-11T14:43:33.459Z,17.90
2022-09-11T14:46:02.129Z,17.90
2022-09-11T14:48:30.931Z,18.00
2022-09-11T14:50:58.732Z,18.20
2022-09-11T14:53:31.481Z,18.30
2022-09-11T14:56:00.133Z,18.30
2022-09-11T14:58:28.785Z,18.00
2022-09-11T15:00:56.555Z,17.80
2022-09-11T15:03:25.322Z,17.60
2022-09-11T15:05:58.337Z,17.50
2022-09-11T15:08:25.939Z,17.50
2022-09-11T15:10:53.691Z,17.50
2022-09-11T15:13:21.447Z,17.40
2022-09-11T15:15:48.448Z,17.20
2022-09-11T15:18:16.871Z,17.00
2022-09-11T15:20:43.797Z,16.80
2022-09-11T15:23:10.704Z,16.60
2022-09-11T15:25:38.321Z,16.40
2022-09-11T15:28:10.030Z,16.30
2022-09-11T15:30:38.275Z,16.30
2022-09-11T15:33:06.249Z,16.30
2022-09-11T15:35:33.309Z,16.30
2022-09-11T15:38:05.557Z,16.40
2022-09-11T15:40:35.194Z,16.40
2022-09-11T15:43:02.131Z,16.40
2022-09-11T15:45:31.978Z,16.40
2022-09-11T15:48:02.913Z,16.40
2022-09-11T15:50:30.270Z,16.40
2022-09-11T15:52:57.740Z,16.40
2022-09-11T15:55:27.354Z,16.40
2022-09-11T15:57:54.277Z,16.30
2022-09-11T16:00:22.029Z,16.30
2022-09-11T16:02:52.696Z,16.30
2022-09-11T16:05:19.861Z,16.20
2022-09-11T16:07:48.202Z,16.20
2022-09-11T16:10:15.708Z,16.20
2022-09-11T16:12:42.603Z,16.10
2022-09-11T16:15:09.903Z,16.00
2022-09-11T16:17:37.526Z,16.00
2022-09-11T16:20:04.835Z,15.90
2022-09-11T16:22:32.349Z,15.80
2022-09-11T16:24:59.492Z,15.70
2022-09-11T16:27:26.426Z,15.70
2022-09-11T16:32:41.219Z,15.50
2022-09-11T16:35:08.487Z,15.50
2022-09-11T16:37:35.446Z,15.40
2022-09-11T16:40:04.373Z,15.30
2022-09-11T16:42:31.958Z,15.20
2022-09-11T16:44:58.859Z,15.10
2022-09-11T16:47:26.285Z,15.00
2022-09-11T16:50:09.151Z,14.90
2022-09-11T16:52:36.706Z,14.80
2022-09-11T16:55:07.018Z,14.70
2022-09-11T16:57:34.561Z,14.50
2022-09-11T17:00:02.040Z,14.30
2022-09-11T17:02:30.481Z,14.20
2022-09-11T17:04:57.388Z,14.10
2022-09-11T17:07:24.861Z,14.00
2022-09-11T17:09:51.972Z,13.90
2022-09-11T17:12:18.849Z,13.80
2022-09-11T17:14:46.041Z,13.80
2022-09-11T17:17:13.357Z,13.70
2022-09-11T17:19:40.289Z,13.60
2022-09-11T17:22:08.663Z,13.50
2022-09-11T17:24:35.919Z,13.40
2022-09-11T17:27:02.859Z,13.30
2022-09-11T17:29:29.972Z,13.20
2022-09-11T17:32:10.850Z,13.10
2022-09-11T17:34:44.149Z,13.00
2022-09-11T17:37:11.086Z,12.90
2022-09-11T17:39:38.179Z,12.90
2022-09-11T17:42:11.019Z,12.80
2022-09-11T17:44:41.407Z,12.70
2022-09-11T17:47:09.257Z,12.60
2022-09-11T17:49:36.398Z,12.50
2022-09-11T17:52:03.757Z,12.50
2022-09-11T17:54:31.030Z,12.40
2022-09-11T17:56:58.605Z,12.40
2022-09-11T17:59:25.548Z,12.50
2022-09-11T18:01:53.545Z,12.50
2022-09-11T18:04:20.658Z,12.50
2022-09-11T18:06:47.657Z,12.50
2022-09-11T18:09:19.786Z,12.50
2022-09-11T18:11:49.478Z,12.50
2022-09-11T18:14:18.731Z,12.40
2022-09-11T18:16:47.852Z,12.40
2022-09-11T18:19:16.459Z,12.30
2022-09-11T18:21:49.259Z,12.30
2022-09-11T18:24:20.432Z,12.20
2022-09-11T18:26:50.136Z,12.10
2022-09-11T18:29:20.122Z,12.00
2022-09-11T18:31:52.630Z,12.00
2022-09-11T18:34:23.630Z,12.00
2022-09-11T18:36:51.017Z,11.90
2022-09-11T18:39:18.934Z,11.90
2022-09-11T18:41:47.771Z,11.90
2022-09-11T18:44:19.837Z,11.90
2022-09-11T18:46:47.819Z,11.90
2022-09-11T18:49:16.027Z,12.00
2022-09-11T18:51:43.684Z,12.00
2022-09-11T18:54:15.534Z,12.00
2022-09-11T18:56:43.171Z,12.00
2022-09-11T18:59:12.163Z,11.90
2022-09-11T19:01:40.120Z,12.00
2022-09-11T19:04:11.794Z,12.00
2022-09-11T19:06:39.843Z,12.00
2022-09-11T19:09:10.423Z,11.90
2022-09-11T19:11:37.711Z,11.80
2022-09-11T19:14:06.754Z,11.70
2022-09-11T19:16:34.537Z,11.60
2022-09-11T19:19:02.125Z,11.50
2022-09-11T19:21:29.919Z,11.50
2022-09-11T19:24:00.318Z,11.50
2022-09-11T19:26:33.705Z,11.40
2022-09-11T19:29:01.092Z,11.40
2022-09-11T19:31:29.773Z,11.30
2022-09-11T19:34:00.804Z,11.20
2022-09-11T19:36:30.488Z,11.20
2022-09-11T19:39:00.870Z,11.20
2022-09-11T19:41:31.220Z,11.10
2022-09-11T19:44:00.407Z,11.00
2022-09-11T19:46:28.694Z,11.00
2022-09-11T19:48:58.030Z,11.00
2022-09-11T19:51:27.556Z,11.00
2022-09-11T19:54:00.227Z,11.00
2022-09-11T19:56:28.102Z,10.90
2022-09-11T19:58:56.709Z,10.90
2022-09-11T20:01:26.027Z,10.90
2022-09-11T20:03:54.507Z,10.80
2022-09-11T20:06:24.403Z,10.80
2022-09-11T20:09:03.149Z,10.80
2022-09-11T20:11:40.293Z,10.70
2022-09-11T20:14:07.305Z,10.70
2022-09-11T20:16:34.361Z,10.70
2022-09-11T20:19:09.356Z,10.70
2022-09-11T20:21:36.324Z,10.60
2022-09-11T20:24:07.967Z,10.60
2022-09-11T20:26:35.595Z,10.60
2022-09-11T20:29:06.977Z,10.60
2022-09-11T20:31:46.499Z,10.50
2022-09-11T20:34:14.807Z,10.50
2022-09-11T20:36:41.864Z,10.60
2022-09-11T20:39:12.874Z,10.50
2022-09-11T20:41:39.956Z,10.50
2022-09-11T20:44:07.066Z,10.50
2022-09-11T20:46:34.192Z,10.40
2022-09-11T20:49:01.145Z,10.40
2022-09-11T20:51:30.975Z,10.40
2022-09-11T20:53:57.884Z,10.40
2022-09-11T20:56:24.810Z,10.30
2022-09-11T20:58:52.431Z,10.30
2022-09-11T21:01:22.502Z,10.30
2022-09-11T21:03:55.061Z,10.20
2022-09-11T21:06:26.443Z,10.20
2022-09-11T21:08:55.716Z,10.10
2022-09-11T21:11:27.713Z,10.20
2022-09-11T21:13:55.144Z,10.10
2022-09-11T21:16:22.146Z,10.10
2022-09-11T21:18:51.222Z,10.00
2022-09-11T21:21:20.146Z,10.00
2022-09-11T21:23:47.891Z,9.90
2022-09-11T21:26:16.966Z,9.90
2022-09-11T21:28:44.617Z,9.90
2022-09-11T21:31:11.711Z,9.90
2022-09-11T21:33:39.274Z,9.90
2022-09-11T21:36:07.310Z,9.90
2022-09-11T21:38:35.750Z,9.90
2022-09-11T21:41:06.253Z,9.80
2022-09-11T21:43:33.185Z,9.80
2022-09-11T21:46:01.623Z,9.80
2022-09-11T21:48:32.389Z,9.80
2022-09-11T21:51:17.191Z,9.80
2022-09-11T21:53:46.037Z,9.80
2022-09-11T21:56:20.999Z,9.80
2022-09-11T21:58:48.679Z,9.80
2022-09-11T22:01:15.740Z,9.80
2022-09-11T22:03:42.862Z,9.80
2022-09-11T22:06:11.317Z,9.80
2022-09-11T22:08:40.997Z,9.80
2022-09-11T22:11:08.322Z,9.80
2022-09-11T22:13:35.658Z,9.80
2022-09-11T22:16:09.478Z,9.80
2022-09-11T22:18:38.592Z,9.80
2022-09-11T22:21:06.287Z,9.80
2022-09-11T22:23:33.612Z,9.70
2022-09-11T22:26:10.366Z,9.70
2022-09-11T22:28:38.325Z,9.70
2022-09-11T22:31:17.974Z,9.70
2022-09-11T22:33:45.350Z,9.70
2022-09-11T22:36:19.224Z,9.70
2022-09-11T22:38:47.406Z,9.70
2022-09-11T22:41:15.630Z,9.70
2022-09-11T22:43:42.555Z,9.70
2022-09-11T22:46:09.533Z,9.70
2022-09-11T22:48:37.019Z,9.60
2022-09-11T22:51:04.872Z,9.60
2022-09-11T22:53:32.457Z,9.60
2022-09-11T22:55:59.878Z,9.70
2022-09-11T22:58:29.355Z,9.60
2022-09-11T23:00:58.006Z,9.60
2022-09-11T23:03:26.085Z,9.70
2022-09-11T23:06:19.030Z,9.60
2022-09-11T23:08:47.097Z,9.60
2022-09-11T23:11:17.157Z,9.60
2022-09-11T23:13:44.582Z,9.60
2022-09-11T23:16:17.874Z,9.60
2022-09-11T23:18:45.058Z,9.60
2022-09-11T23:21:13.173Z,9.60
2022-09-11T23:23:44.866Z,9.60
2022-09-11T23:26:13.886Z,9.60
2022-09-11T23:28:41.767Z,9.60
2022-09-11T23:31:18.698Z,9.60
2022-09-11T23:33:46.540Z,9.50
2022-09-11T23:36:15.169Z,9.50
2022-09-11T23:38:47.273Z,9.50
2022-09-11T23:41:15.460Z,9.50
2022-09-11T23:43:42.453Z,9.40
2022-09-11T23:46:09.679Z,9.50
2022-09-11T23:48:36.855Z,9.50
2022-09-11T23:51:04.607Z,9.50
2022-09-11T23:53:31.530Z,9.50
2022-09-11T23:55:59.034Z,9.40
2022-09-11T23:58:26.109Z,9.40
